Stations météo

réclame
Mon MeteoGroup
Adra, Espagne (8486): Température de l'air & dewpoint: 14.11.2018 12:00:00 - 20.11.2018 12:00:00 (CET)Adra, Espagne (8486): Vitesse du vent & gusts: 14.11.2018 12:00:00 - 20.11.2018 12:00:00 (CET)Adra, Espagne (8486): Direction du vent: 14.11.2018 12:00:00 - 20.11.2018 12:00:00 (CET)Adra, Espagne (8486): reduced air pressure: 14.11.2018 12:00:00 - 20.11.2018 12:00:00 (CET)Adra, Espagne (8486): Quantités de précipitations: 14.11.2018 12:00:00 - 20.11.2018 12:00:00 (CET)
Date & Time tt [°C] td [°C] ff [km/h] ff [knt] fx [km/h] fx [knt] dd ppp [hPa] rr [mm]
20.11.2018 12:00:00 15,7 12,6 6 4 25 13 WNW 1008,2 0,1
20.11.2018 11:00:00 15,8 10,5 9 5 29 15 W 1008,5 0,0
20.11.2018 10:00:00 17,2 9,3 9 5 29 15 W 1007,4 0,0
20.11.2018 09:00:00 17,1 8,5 9 5 27 14 W 1006,8 0,0
20.11.2018 08:00:00 17,2 8,9 14 8 32 17 W 1006,4 0,0
20.11.2018 07:00:00 17,0 8,4 14 7 27 14 W 1006,4 -
20.11.2018 06:00:00 15,4 9,3 14 8 29 16 W 1006,0 0,0
20.11.2018 05:00:00 15,6 8,4 16 9 30 16 W 1005,7 0,0
20.11.2018 04:00:00 15,3 7,8 9 5 25 14 W 1005,7 0,0
20.11.2018 03:00:00 15,4 9,0 18 10 39 21 W 1005,7 0,0
20.11.2018 02:00:00 15,6 10,8 19 10 39 21 W 1005,4 0,0
20.11.2018 01:00:00 16,2 10,5 17 9 35 19 W 1005,4 -
20.11.2018 00:00:00 16,3 10,6 10 5 33 18 W 1005,5 0,0
19.11.2018 23:00:00 16,3 10,6 15 8 33 18 W 1005,6 0,0
19.11.2018 22:00:00 16,4 9,8 13 7 26 14 W 1005,1 0,0
19.11.2018 21:00:00 16,3 11,2 14 8 26 14 W 1004,6 0,0
19.11.2018 20:00:00 16,3 11,9 13 7 29 16 W 1004,3 0,0
19.11.2018 19:00:00 16,2 12,7 13 7 34 18 W 1004,0 -
19.11.2018 18:00:00 16,0 12,7 23 13 41 22 W 1003,4 0,0
19.11.2018 17:00:00 16,3 13,3 26 14 52 28 W 1002,8 0,0
19.11.2018 16:00:00 16,5 14,1 31 17 59 32 W 1001,7 0,0
19.11.2018 15:00:00 16,6 13,6 33 18 55 30 W 1001,6 0,0
19.11.2018 14:00:00 17,1 13,5 27 15 49 27 W 1001,3 0,0
19.11.2018 13:00:00 16,7 13,5 28 15 50 27 W 1001,9 -
19.11.2018 12:00:00 15,9 13,1 25 14 42 23 W 1002,8 0,0
19.11.2018 11:00:00 16,1 12,4 9 5 20 11 SW 1003,1 0,0
19.11.2018 10:00:00 15,1 13,7 6 3 14 8 NW 1002,7 0,0
19.11.2018 09:00:00 13,7 12,4 0 0 19 11 N 1003,7 0,0
19.11.2018 08:00:00 13,8 11,9 12 7 22 12 W 1003,6 0,0
19.11.2018 07:00:00 14,8 10,6 16 8 27 14 W 1002,9 -
19.11.2018 06:00:00 13,9 10,6 3 2 26 14 WNW 1003,4 0,0
19.11.2018 05:00:00 15,2 9,8 22 12 39 21 W 1002,9 0,0
19.11.2018 04:00:00 15,5 9,2 10 5 18 10 W 1002,4 0,0
19.11.2018 03:00:00 15,2 9,9 6 3 13 7 W 1003,2 0,0
19.11.2018 02:00:00 14,2 11,0 3 1 10 5 W 1003,6 0,0
19.11.2018 01:00:00 14,3 12,2 1 1 7 4 N 1004,0 -
19.11.2018 00:00:00 14,2 12,4 4 2 7 4 N 1004,2 0,0
18.11.2018 23:00:00 14,5 12,5 1 1 9 5 N 1004,3 0,0
18.11.2018 22:00:00 14,0 12,7 3 1 8 5 N 1004,0 0,0
18.11.2018 21:00:00 14,6 13,4 2 1 14 8 NW 1004,4 0,0
18.11.2018 20:00:00 14,6 13,7 5 3 15 8 NE 1004,5 0,8
18.11.2018 19:00:00 15,3 13,4 6 3 16 9 NE 1004,1 -
18.11.2018 18:00:00 17,4 12,3 4 2 13 7 ENE 1002,9 0,0
18.11.2018 17:00:00 17,5 12,2 6 4 21 12 ENE 1002,5 0,0
18.11.2018 16:00:00 17,8 11,8 10 5 31 17 ENE 1003,4 0,0
18.11.2018 15:00:00 18,4 13,1 13 7 30 16 ENE 1003,1 0,0
18.11.2018 14:00:00 18,4 12,1 14 8 27 14 ESE 1003,7 0,0
18.11.2018 13:00:00 19,5 10,2 12 6 35 19 E 1003,3 -
18.11.2018 12:00:00 19,8 9,3 16 9 36 20 E 1003,6 0,0
18.11.2018 11:00:00 19,3 10,3 11 6 28 15 E 1004,8 0,0
18.11.2018 10:00:00 19,1 10,4 8 5 18 10 E 1005,2 0,0
18.11.2018 09:00:00 17,8 10,2 5 3 17 9 E 1006,0 0,0
18.11.2018 08:00:00 16,7 10,3 9 5 22 12 E 1005,6 0,0
18.11.2018 07:00:00 16,7 11,0 8 5 18 10 ENE 1005,9 -
18.11.2018 06:00:00 16,6 11,1 9 5 22 12 ENE 1005,9 0,0
18.11.2018 05:00:00 16,3 11,0 9 5 20 11 ENE 1006,7 0,0
18.11.2018 04:00:00 16,2 11,1 9 5 23 12 ENE 1008,0 0,0
18.11.2018 03:00:00 16,6 11,6 5 3 19 10 ENE 1009,3 0,0
18.11.2018 02:00:00 16,6 11,8 4 2 16 9 ENE 1010,6 0,0
18.11.2018 01:00:00 17,0 11,7 5 3 20 11 ENE 1011,4 -
18.11.2018 00:00:00 16,9 11,6 4 2 18 10 NE 1011,7 0,0
17.11.2018 23:00:00 16,6 12,5 4 2 19 10 ENE 1011,9 0,0
17.11.2018 22:00:00 16,8 12,7 6 3 18 10 ENE 1012,0 0,0
17.11.2018 21:00:00 17,0 13,0 7 4 21 11 ENE 1012,4 0,0
17.11.2018 20:00:00 17,6 13,6 6 4 23 12 ENE 1012,8 0,0
17.11.2018 19:00:00 17,9 13,7 10 5 26 14 ENE 1013,0 -
17.11.2018 18:00:00 18,3 13,2 4 2 19 10 ENE 1013,3 0,0
17.11.2018 17:00:00 19,1 13,5 8 5 23 13 E 1013,3 0,0
17.11.2018 16:00:00 19,7 14,3 9 5 24 13 E 1012,2 0,0
17.11.2018 15:00:00 20,1 14,0 11 6 27 14 ESE 1012,8 0,0
17.11.2018 14:00:00 19,8 15,4 9 5 22 12 ESE 1012,7 0,0
17.11.2018 13:00:00 19,8 14,1 7 4 19 10 E 1014,2 -
17.11.2018 12:00:00 19,6 13,9 7 4 18 10 E 1014,8 0,0
17.11.2018 11:00:00 20,1 13,4 0 0 5 3 SW 1014,9 0,0
17.11.2018 10:00:00 18,8 13,0 0 0 5 3 S 1015,5 0,0
17.11.2018 09:00:00 18,8 13,0 0 0 6 4 S 1015,0 0,0
17.11.2018 08:00:00 17,0 10,9 5 3 14 7 N 1015,6 0,0
17.11.2018 07:00:00 16,6 10,9 4 2 13 7 NNE 1015,6 -
17.11.2018 06:00:00 16,3 11,4 2 1 14 8 NNE 1015,7 0,0
17.11.2018 05:00:00 16,2 11,8 4 2 8 5 ENE 1015,6 0,0
17.11.2018 04:00:00 16,2 12,0 0 0 8 4 NE 1015,9 0,0
17.11.2018 03:00:00 16,7 12,4 1 0 6 4 NNE 1016,6 0,0
17.11.2018 02:00:00 17,0 11,9 3 2 9 5 N 1016,5 0,0
17.11.2018 01:00:00 16,6 12,1 2 1 8 4 N 1016,4 -
17.11.2018 00:00:00 17,1 12,2 2 1 5 3 N 1016,6 0,0
16.11.2018 23:00:00 17,7 12,5 2 1 5 3 N 1016,5 0,0
16.11.2018 22:00:00 18,6 12,5 1 0 13 7 N 1016,3 0,0
16.11.2018 21:00:00 18,8 13,5 4 2 14 8 E 1016,0 0,0
16.11.2018 20:00:00 18,9 13,6 9 5 20 11 E 1016,0 0,0
16.11.2018 19:00:00 19,5 13,7 5 3 17 9 E 1015,8 -
16.11.2018 18:00:00 19,6 14,4 9 5 29 16 E 1015,7 0,0
16.11.2018 17:00:00 20,4 13,9 11 6 26 14 E 1015,1 0,0
16.11.2018 16:00:00 21,4 14,5 9 5 29 16 E 1014,4 0,0
16.11.2018 15:00:00 20,9 14,5 14 7 29 16 ESE 1014,8 0,0
16.11.2018 14:00:00 20,5 14,4 10 6 22 12 ESE 1015,4 0,0
16.11.2018 13:00:00 20,4 14,3 9 5 22 12 ESE 1016,1 -
16.11.2018 12:00:00 20,1 13,6 4 2 14 8 SE 1017,0 0,0
16.11.2018 11:00:00 21,0 11,3 5 3 16 8 ENE 1017,1 0,0
16.11.2018 10:00:00 18,7 10,8 8 4 16 9 NNE 1018,1 0,0
16.11.2018 09:00:00 18,6 10,9 8 5 20 11 NNE 1017,8 0,0
16.11.2018 08:00:00 16,7 10,3 8 4 17 9 NNE 1018,5 0,0
16.11.2018 07:00:00 16,3 10,4 7 4 17 9 NNE 1018,3 -
16.11.2018 06:00:00 16,2 10,9 3 2 16 8 NNE 1018,3 0,0
16.11.2018 05:00:00 16,2 10,9 8 4 22 12 NNE 1018,3 0,0
16.11.2018 04:00:00 16,2 11,1 10 5 20 11 NNE 1018,6 0,0
16.11.2018 03:00:00 16,6 11,8 4 2 13 7 NNE 1019,0 0,0
16.11.2018 02:00:00 16,5 12,2 5 3 21 11 NNE 1018,7 0,0
16.11.2018 01:00:00 16,5 13,1 5 3 13 7 ENE 1019,0 -
16.11.2018 00:00:00 16,5 13,6 3 2 9 5 NNE 1019,3 0,0
15.11.2018 23:00:00 16,4 14,2 2 1 7 4 NE 1019,3 0,0
15.11.2018 22:00:00 17,1 14,7 3 1 13 7 ENE 1019,0 0,0
15.11.2018 21:00:00 17,9 15,0 4 2 11 6 ENE 1018,8 0,0
15.11.2018 20:00:00 18,0 15,6 5 3 13 7 E 1018,1 0,0
15.11.2018 19:00:00 18,1 15,9 5 3 10 6 ESE 1017,7 -
15.11.2018 18:00:00 18,0 15,8 2 1 8 5 SSE 1017,1 0,0
15.11.2018 17:00:00 18,5 15,2 2 1 16 8 E 1016,8 0,0
15.11.2018 16:00:00 19,4 15,3 2 1 13 7 ENE 1015,9 0,0
15.11.2018 15:00:00 19,1 15,0 5 3 13 7 ESE 1015,3 0,0
15.11.2018 14:00:00 18,9 15,5 6 4 18 10 SE 1015,7 0,0
15.11.2018 13:00:00 19,6 15,4 9 5 18 10 ESE 1016,0 -
15.11.2018 12:00:00 18,0 13,9 3 1 8 4 W 1016,9 0,0
15.11.2018 11:00:00 19,3 15,0 1 0 5 3 SSW 1016,2 0,0
15.11.2018 10:00:00 19,0 14,4 5 3 12 7 SE 1015,5 0,0
15.11.2018 09:00:00 17,2 14,1 4 2 7 4 E 1016,0 0,0
15.11.2018 08:00:00 16,2 14,0 3 1 5 3 N 1016,1 0,0
15.11.2018 07:00:00 16,1 14,1 1 1 3 2 NNW 1015,3 -
15.11.2018 06:00:00 16,9 13,9 1 0 16 9 NW 1014,6 0,0
15.11.2018 05:00:00 17,8 13,8 8 4 23 12 NW 1014,3 0,0
15.11.2018 04:00:00 17,5 13,1 5 3 24 13 ENE 1014,5 0,1
15.11.2018 03:00:00 17,5 13,5 8 5 23 12 NNE 1013,9 0,9
15.11.2018 02:00:00 16,6 13,4 10 6 35 19 WNW 1016,1 0,2
15.11.2018 01:00:00 20,1 10,8 8 4 23 12 ENE 1015,7 -
15.11.2018 00:00:00 20,9 10,4 5 3 18 10 NE 1014,8 0,0
14.11.2018 23:00:00 20,5 10,9 6 4 20 11 ENE 1015,6 0,0
14.11.2018 22:00:00 20,7 10,8 3 2 21 12 NE 1015,7 0,0
14.11.2018 21:00:00 21,8 10,6 6 3 32 17 NE 1015,8 0,0
14.11.2018 20:00:00 22,0 10,8 12 7 36 20 E 1015,4 0,0
14.11.2018 19:00:00 21,8 10,6 12 6 35 19 E 1016,0 -
14.11.2018 18:00:00 21,8 10,9 10 5 35 19 E 1015,9 0,0
14.11.2018 17:00:00 22,1 11,4 11 6 33 18 E 1015,7 0,0
14.11.2018 16:00:00 21,6 12,4 14 8 29 16 E 1016,4 0,0
14.11.2018 15:00:00 22,3 12,5 14 8 34 18 E 1016,2 0,0
14.11.2018 14:00:00 22,3 12,8 11 6 30 16 E 1016,9 0,0
14.11.2018 13:00:00 22,1 12,3 15 8 35 19 E 1017,2 -
14.11.2018 12:00:00 21,4 12,5 13 7 37 20 E 1018,8 0,0

tt = Température de l'air
td = dewpoint
ff = Vitesse du vent
fx = gusts
dd = Direction du vent
ppp = reduced air pressure
rr = Quantités de précipitations

stations d'obs. à proximité